Time;durP1;ratioP1;P1;durP2;ratioP2;P2;SDS_P1;SDS_P2;PMS_P1;PMS_P2;Temp;Humidity;BMP_temperature;BMP_pressure;BME280_temperature;BME280_humidity;BME280_pressure;Samples;Min_cycle;Max_cycle;Signal;HPM_P1;HPM_P2
2022/06/12 00:01:01;;;;;;;2.65;2.45;;;17.50;65.60;;;;;;5014194;28;20037;-67
2022/06/12 00:03:28;;;;;;;4.70;2.55;;;17.50;65.70;;;;;;5015618;28;20478;-68
2022/06/12 00:05:56;;;;;;;3.70;2.30;;;17.50;65.90;;;;;;5014151;28;20033;-67
2022/06/12 00:08:23;;;;;;;3.03;2.30;;;17.40;66.20;;;;;;5011338;28;20041;-67
2022/06/12 00:10:51;;;;;;;3.35;2.10;;;17.40;66.40;;;;;;5011615;28;20038;-68
2022/06/12 00:13:22;;;;;;;4.10;2.50;;;17.40;66.50;;;;;;5012666;28;20044;-67
2022/06/12 00:15:48;;;;;;;2.22;2.10;;;17.40;66.90;;;;;;5017291;28;20047;-67
2022/06/12 00:18:13;;;;;;;2.40;2.20;;;17.30;66.60;;;;;;5018690;28;20037;-68
2022/06/12 00:20:39;;;;;;;3.75;2.58;;;17.30;66.70;;;;;;5022707;28;20448;-67
2022/06/12 00:23:11;;;;;;;2.65;2.40;;;17.20;66.90;;;;;;5018877;28;20393;-68
2022/06/12 00:25:38;;;;;;;3.92;2.35;;;17.20;67.30;;;;;;5017344;28;20052;-68
2022/06/12 00:28:05;;;;;;;3.97;2.40;;;17.10;67.00;;;;;;5016241;28;20025;-68
2022/06/12 00:30:31;;;;;;;3.70;2.67;;;17.10;67.20;;;;;;5014538;28;20064;-67
2022/06/12 00:32:57;;;;;;;2.72;2.53;;;17.10;67.30;;;;;;5013813;28;20026;-67
2022/06/12 00:35:34;;;;;;;2.70;2.50;;;17.00;67.60;;;;;;5016570;28;20989;-67
2022/06/12 00:38:00;;;;;;;2.83;2.63;;;17.00;68.80;;;;;;5015441;28;20456;-67
2022/06/12 00:40:26;;;;;;;2.85;2.63;;;17.00;68.30;;;;;;5016921;28;20041;-67
2022/06/12 00:42:56;;;;;;;3.78;2.80;;;17.00;68.00;;;;;;5030209;28;20091;-67
2022/06/12 00:45:37;;;;;;;3.25;2.75;;;16.90;68.30;;;;;;5012578;28;20124;-67
2022/06/12 00:48:07;;;;;;;2.83;2.63;;;16.90;69.20;;;;;;5014305;28;20113;-67
2022/06/12 00:50:35;;;;;;;3.90;2.97;;;16.90;68.40;;;;;;5014784;28;20060;-67
2022/06/12 00:53:01;;;;;;;3.00;2.80;;;16.80;68.30;;;;;;5011763;28;20599;-67
2022/06/12 00:55:45;;;;;;;3.72;3.42;;;16.80;68.30;;;;;;5016382;28;20113;-67
2022/06/12 00:58:15;;;;;;;6.10;3.13;;;16.80;69.30;;;;;;5014280;28;20029;-67
2022/06/12 01:00:42;;;;;;;3.33;3.03;;;16.70;68.40;;;;;;5017441;28;20036;-67
2022/06/12 01:03:09;;;;;;;3.65;2.70;;;16.70;68.30;;;;;;5013291;28;20037;-67
2022/06/12 01:08:21;;;;;;;2.67;2.47;;;16.60;68.50;;;;;;5014418;28;20049;-67
2022/06/12 01:10:49;;;;;;;2.95;2.50;;;16.60;68.30;;;;;;5015072;28;20099;-67
2022/06/12 01:13:30;;;;;;;2.70;2.50;;;16.60;68.40;;;;;;5015313;28;20045;-67
2022/06/12 01:16:01;;;;;;;2.22;2.03;;;16.60;69.20;;;;;;5013587;28;20091;-67
2022/06/12 01:18:31;;;;;;;3.22;2.10;;;16.60;68.70;;;;;;5018567;28;20037;-67
2022/06/12 01:21:28;;;;;;;2.10;2.00;;;16.50;68.50;;;;;;5013627;28;20061;-67
2022/06/12 01:24:30;;;;;;;2.40;2.20;;;16.50;69.50;;;;;;5013581;28;20247;-68
2022/06/12 01:27:13;;;;;;;2.78;2.08;;;16.50;69.60;;;;;;5013492;28;20044;-67
2022/06/12 01:29:52;;;;;;;2.13;1.95;;;16.40;69.70;;;;;;5018020;28;20034;-67
2022/06/12 01:32:28;;;;;;;3.45;2.00;;;16.40;69.30;;;;;;5012103;28;20185;-67
2022/06/12 01:35:07;;;;;;;2.58;2.03;;;16.40;69.20;;;;;;5012895;28;20087;-67
2022/06/12 01:37:46;;;;;;;2.80;2.40;;;16.30;69.80;;;;;;5015732;28;20041;-67
2022/06/12 01:40:33;;;;;;;2.50;2.30;;;16.30;69.30;;;;;;5011768;28;20406;-67
2022/06/12 01:43:17;;;;;;;2.53;2.33;;;16.20;69.30;;;;;;5015169;28;20044;-67
2022/06/12 01:46:06;;;;;;;3.38;2.70;;;16.20;70.40;;;;;;5013985;28;20080;-67
2022/06/12 01:48:53;;;;;;;2.60;2.40;;;16.10;69.30;;;;;;5014317;28;20033;-67
2022/06/12 01:51:30;;;;;;;2.97;2.47;;;16.10;69.80;;;;;;5010983;28;20169;-67
2022/06/12 01:53:59;;;;;;;2.92;2.72;;;16.10;70.00;;;;;;5013952;28;20434;-67
2022/06/12 01:56:39;;;;;;;2.92;2.72;;;16.00;69.90;;;;;;5013943;28;20032;-67
2022/06/12 01:59:16;;;;;;;2.63;2.42;;;16.00;70.00;;;;;;5012037;28;20045;-67
2022/06/12 02:01:51;;;;;;;4.55;2.80;;;16.00;70.40;;;;;;5014175;28;20508;-67
2022/06/12 02:04:20;;;;;;;4.68;2.97;;;16.00;70.60;;;;;;5013913;28;20064;-67
2022/06/12 02:06:53;;;;;;;2.88;2.60;;;16.00;69.90;;;;;;5014239;28;20124;-67
2022/06/12 02:09:24;;;;;;;3.00;2.17;;;15.90;70.00;;;;;;5013304;28;20034;-67
2022/06/12 02:14:54;;;;;;;3.00;2.60;;;15.90;70.60;;;;;;5010617;28;20124;-67
2022/06/12 02:17:27;;;;;;;2.92;2.45;;;15.90;70.60;;;;;;5010823;28;20112;-67
2022/06/12 02:19:54;;;;;;;3.05;2.85;;;15.90;70.60;;;;;;5013202;28;20046;-67
2022/06/12 02:22:27;;;;;;;3.20;2.90;;;15.80;70.40;;;;;;5014341;28;20033;-67
2022/06/12 02:25:03;;;;;;;3.67;2.60;;;15.80;71.30;;;;;;5026121;28;20522;-66
2022/06/12 02:27:50;;;;;;;3.13;2.45;;;15.80;71.30;;;;;;5014361;28;20104;-67
2022/06/12 02:30:33;;;;;;;3.05;2.80;;;15.80;71.10;;;;;;5013047;28;20106;-67
2022/06/12 02:33:06;;;;;;;3.38;2.53;;;15.70;70.90;;;;;;5013255;28;20041;-67
2022/06/12 02:35:44;;;;;;;3.45;2.72;;;15.70;70.70;;;;;;5012899;28;20033;-67
2022/06/12 02:38:14;;;;;;;2.83;2.58;;;15.60;71.30;;;;;;5015164;28;20034;-67
2022/06/12 02:41:18;;;;;;;5.18;3.00;;;15.60;70.90;;;;;;5016779;28;20385;-67
2022/06/12 02:43:45;;;;;;;3.42;3.10;;;15.50;72.30;;;;;;5016865;28;20124;-67
2022/06/12 02:46:36;;;;;;;3.45;3.15;;;15.50;71.10;;;;;;5015036;28;20065;-67
2022/06/12 02:49:03;;;;;;;3.28;3.00;;;15.50;72.40;;;;;;5015227;28;20034;-67
2022/06/12 02:51:50;;;;;;;4.18;2.78;;;15.50;70.90;;;;;;5017074;28;20191;-67
2022/06/12 02:54:16;;;;;;;3.15;2.80;;;15.50;71.70;;;;;;5015856;28;20056;-67
2022/06/12 02:56:51;;;;;;;3.30;2.78;;;15.50;71.10;;;;;;5017949;28;20500;-67
2022/06/12 02:59:20;;;;;;;;;;;15.40;71.90;;;;;;5018190;28;20097;-67
2022/06/12 03:02:02;;;;;;;2.92;2.65;;;15.40;71.60;;;;;;5012916;28;19967;-67
2022/06/12 03:04:40;;;;;;;3.78;2.88;;;15.40;71.20;;;;;;5012732;28;20519;-67
2022/06/12 03:07:06;;;;;;;3.63;2.88;;;15.30;71.30;;;;;;5016972;28;20049;-67
2022/06/12 03:09:32;;;;;;;4.68;3.05;;;15.30;71.10;;;;;;5018016;28;20033;-67
2022/06/12 03:11:58;;;;;;;3.40;2.90;;;15.30;71.40;;;;;;5017788;28;20037;-67
2022/06/12 03:14:25;;;;;;;3.33;2.90;;;15.30;71.60;;;;;;5019186;28;20588;-67
2022/06/12 03:16:51;;;;;;;3.42;2.80;;;15.30;71.60;;;;;;5017818;28;20040;-67
2022/06/12 03:19:27;;;;;;;2.78;2.58;;;15.20;71.60;;;;;;5020754;28;20393;-67
2022/06/12 03:21:52;;;;;;;3.33;2.70;;;15.20;72.70;;;;;;5022268;28;20037;-67
2022/06/12 03:24:37;;;;;;;3.33;2.60;;;15.20;72.00;;;;;;5020984;28;20064;-67
2022/06/12 03:27:27;;;;;;;3.15;2.85;;;15.20;73.30;;;;;;5015523;28;20113;-67
2022/06/12 03:30:18;;;;;;;3.33;3.03;;;15.20;73.20;;;;;;5015893;28;20456;-67
2022/06/12 03:33:02;;;;;;;2.90;2.70;;;15.20;72.90;;;;;;5016049;28;20107;-67
2022/06/12 03:35:31;;;;;;;3.42;2.83;;;15.20;72.70;;;;;;5015285;28;20873;-67
2022/06/12 03:38:10;;;;;;;3.47;2.60;;;15.20;72.10;;;;;;5017773;28;20583;-66
2022/06/12 03:41:05;;;;;;;5.63;2.90;;;15.10;72.70;;;;;;5013120;28;20033;-67
2022/06/12 03:43:52;;;;;;;5.07;3.00;;;15.10;73.30;;;;;;5016704;28;20087;-67
2022/06/12 03:46:45;;;;;;;2.95;2.75;;;15.10;72.20;;;;;;5015983;28;20095;-67
2022/06/12 03:49:29;;;;;;;4.70;2.72;;;15.10;73.10;;;;;;5014114;28;20045;-67
2022/06/12 03:52:04;;;;;;;2.85;2.40;;;15.10;73.00;;;;;;5011739;28;20022;-67
2022/06/12 03:54:36;;;;;;;2.65;2.45;;;15.10;72.90;;;;;;5013873;28;20053;-67
2022/06/12 04:00:17;;;;;;;3.00;2.80;;;15.10;73.30;;;;;;5017194;28;20037;-67
2022/06/12 04:02:46;;;;;;;4.85;2.63;;;15.10;72.80;;;;;;5014017;28;20042;-67
2022/06/12 04:05:20;;;;;;;2.72;2.53;;;15.10;72.80;;;;;;5014794;28;20049;-67
2022/06/12 04:07:49;;;;;;;3.05;2.70;;;15.10;73.30;;;;;;5014054;28;20115;-67
2022/06/12 04:10:19;;;;;;;3.10;2.85;;;15.10;73.10;;;;;;5014080;28;20523;-67
2022/06/12 04:12:45;;;;;;;3.33;2.50;;;15.10;73.30;;;;;;5012843;28;20152;-67
2022/06/12 04:15:31;;;;;;;2.97;2.67;;;15.10;73.10;;;;;;5014787;28;20040;-67
2022/06/12 04:17:57;;;;;;;3.35;2.78;;;15.10;74.30;;;;;;5015996;28;20053;-66
2022/06/12 04:20:39;;;;;;;3.00;2.70;;;15.10;73.40;;;;;;5013009;28;20123;-67
2022/06/12 04:23:15;;;;;;;4.05;3.42;;;15.10;73.70;;;;;;5014356;28;20034;-67
2022/06/12 04:25:48;;;;;;;4.75;4.22;;;15.10;74.00;;;;;;5014344;28;20034;-67
2022/06/12 04:28:37;;;;;;;5.70;4.30;;;15.20;74.00;;;;;;5014196;28;20201;-67
2022/06/12 04:31:16;;;;;;;5.82;3.67;;;15.20;74.90;;;;;;5014222;28;20060;-67
2022/06/12 04:34:25;;;;;;;5.90;3.60;;;15.20;74.90;;;;;;5014586;28;20050;-67
2022/06/12 04:36:55;;;;;;;3.53;3.22;;;15.20;74.80;;;;;;4990298;28;20030;-66
2022/06/12 04:39:24;;;;;;;4.57;3.67;;;15.30;74.00;;;;;;4992536;28;20087;-67
2022/06/12 04:41:51;;;;;;;3.92;3.53;;;15.30;74.60;;;;;;5004719;28;20534;-65
2022/06/12 04:44:17;;;;;;;4.50;3.78;;;15.30;74.50;;;;;;5014484;28;20144;-66
2022/06/12 04:46:46;;;;;;;4.28;3.88;;;15.30;74.70;;;;;;5015284;28;20033;-66
2022/06/12 04:49:18;;;;;;;3.95;3.65;;;15.30;75.20;;;;;;5016063;28;20505;-66
2022/06/12 04:51:44;;;;;;;4.53;4.13;;;15.40;75.60;;;;;;5012799;28;20030;-66
2022/06/12 04:54:10;;;;;;;4.82;4.18;;;15.40;75.20;;;;;;5012507;28;20034;-66
2022/06/12 04:56:36;;;;;;;4.80;3.95;;;15.40;75.40;;;;;;5011705;28;20030;-66
2022/06/12 04:59:03;;;;;;;4.93;4.53;;;15.40;76.50;;;;;;5013783;28;20036;-66
2022/06/12 05:01:29;;;;;;;5.40;4.97;;;15.50;76.00;;;;;;5014243;28;20072;-66
2022/06/12 05:03:56;;;;;;;4.45;4.10;;;15.50;76.00;;;;;;5013265;28;20052;-66
2022/06/12 05:06:22;;;;;;;5.15;4.20;;;15.50;76.00;;;;;;5014087;28;20127;-66
2022/06/12 05:08:48;;;;;;;4.32;3.72;;;15.60;76.20;;;;;;5012936;28;20037;-66
2022/06/12 05:11:15;;;;;;;4.05;3.60;;;15.60;76.40;;;;;;5011550;28;20191;-66
2022/06/12 05:13:40;;;;;;;4.85;3.65;;;15.70;76.40;;;;;;5011862;28;20440;-66
2022/06/12 05:16:08;;;;;;;4.57;3.55;;;15.80;76.30;;;;;;5015275;28;20042;-66
2022/06/12 05:18:35;;;;;;;3.58;3.28;;;15.90;76.40;;;;;;5013349;28;20040;-68
2022/06/12 05:21:01;;;;;;;4.18;3.78;;;16.00;76.60;;;;;;5012744;28;20053;-68
2022/06/12 05:23:26;;;;;;;3.83;3.42;;;16.10;77.20;;;;;;5011897;28;20081;-68
2022/06/12 05:25:52;;;;;;;3.72;3.42;;;16.20;76.10;;;;;;5013497;28;20117;-68
2022/06/12 05:28:19;;;;;;;3.72;3.42;;;16.30;75.90;;;;;;5011036;28;20034;-68
2022/06/12 05:30:45;;;;;;;4.10;3.70;;;16.40;75.70;;;;;;5011615;28;20135;-68
2022/06/12 05:33:12;;;;;;;7.78;4.20;;;16.50;76.20;;;;;;5012494;28;20065;-68
2022/06/12 05:35:39;;;;;;;6.15;4.03;;;16.60;76.10;;;;;;5012979;28;20034;-68
2022/06/12 05:38:07;;;;;;;5.90;4.13;;;16.80;75.80;;;;;;5009931;28;20657;-68
2022/06/12 05:40:35;;;;;;;5.50;4.68;;;16.90;75.80;;;;;;5011898;28;20033;-68
2022/06/12 05:43:01;;;;;;;6.53;4.60;;;17.00;75.50;;;;;;5011236;28;20021;-68
2022/06/12 05:45:30;;;;;;;6.18;4.63;;;17.10;75.40;;;;;;5014158;28;20033;-68
2022/06/12 05:47:59;;;;;;;5.53;4.80;;;17.20;75.70;;;;;;5012999;28;20116;-68
2022/06/12 05:50:29;;;;;;;5.53;5.00;;;17.40;75.80;;;;;;5011779;28;20041;-66
2022/06/12 05:52:56;;;;;;;5.43;4.97;;;17.50;75.80;;;;;;5011547;28;20041;-66
2022/06/12 05:55:22;;;;;;;6.88;5.45;;;17.60;75.30;;;;;;5011782;28;20038;-66
2022/06/12 05:57:49;;;;;;;5.85;5.32;;;17.70;75.30;;;;;;5013882;28;20034;-66
2022/06/12 06:00:20;;;;;;;6.80;5.10;;;17.80;74.90;;;;;;5011165;28;20041;-66
2022/06/12 06:02:45;;;;;;;5.47;4.97;;;17.90;75.20;;;;;;5011855;28;20305;-66
2022/06/12 06:05:13;;;;;;;5.15;4.75;;;17.90;74.90;;;;;;5014543;28;20084;-66
2022/06/12 06:07:39;;;;;;;5.53;5.03;;;18.10;75.10;;;;;;5011900;28;20497;-66
2022/06/12 06:10:15;;;;;;;4.85;4.45;;;18.20;74.00;;;;;;5014556;28;20037;-66
2022/06/12 06:12:41;;;;;;;5.60;5.10;;;18.30;73.90;;;;;;5010832;28;20136;-66
2022/06/12 06:15:08;;;;;;;6.00;4.63;;;18.50;74.90;;;;;;5013893;28;20136;-66
2022/06/12 06:17:34;;;;;;;5.32;4.55;;;18.50;73.50;;;;;;5013044;28;20034;-66
2022/06/12 06:19:59;;;;;;;5.05;4.55;;;18.70;73.30;;;;;;5016521;28;20258;-66
2022/06/12 06:22:25;;;;;;;5.68;4.40;;;18.70;73.20;;;;;;5014496;28;20057;-66
2022/06/12 06:24:51;;;;;;;5.15;4.32;;;18.90;73.20;;;;;;5012223;28;20041;-66
2022/06/12 06:27:17;;;;;;;5.78;4.47;;;19.00;73.10;;;;;;5013905;28;20034;-66
2022/06/12 06:29:43;;;;;;;5.07;4.55;;;19.10;73.30;;;;;;5013272;28;20168;-66
2022/06/12 06:32:11;;;;;;;5.15;4.65;;;19.20;72.80;;;;;;5013329;28;20148;-66
2022/06/12 06:34:39;;;;;;;5.35;4.72;;;19.30;72.80;;;;;;5018396;28;20030;-66
2022/06/12 06:37:07;;;;;;;5.18;4.68;;;19.50;72.50;;;;;;5013924;28;20076;-66
2022/06/12 06:39:33;;;;;;;4.63;4.28;;;19.60;72.00;;;;;;5017296;28;20116;-66
2022/06/12 06:41:58;;;;;;;5.88;4.38;;;19.70;71.80;;;;;;5017119;28;20549;-66
2022/06/12 06:47:16;;;;;;;4.70;4.30;;;19.90;71.30;;;;;;5015501;28;20152;-66
2022/06/12 06:49:42;;;;;;;4.35;3.95;;;20.00;70.70;;;;;;5013296;28;20314;-67
2022/06/12 06:52:07;;;;;;;4.75;4.10;;;20.10;70.70;;;;;;5013469;28;20052;-66
2022/06/12 06:54:34;;;;;;;4.32;3.92;;;20.10;70.10;;;;;;5009869;28;20480;-67
2022/06/12 06:56:59;;;;;;;5.28;3.92;;;20.30;69.60;;;;;;5013283;28;20512;-66
2022/06/12 06:59:25;;;;;;;4.60;4.20;;;20.30;69.10;;;;;;5008861;28;20030;-66
2022/06/12 07:01:52;;;;;;;4.18;3.88;;;20.40;68.80;;;;;;5008797;28;20580;-66
2022/06/12 07:04:18;;;;;;;3.72;3.40;;;20.50;69.20;;;;;;5013102;28;20041;-66
2022/06/12 07:06:44;;;;;;;3.78;3.45;;;20.60;69.00;;;;;;5013089;28;20475;-66
2022/06/12 07:09:09;;;;;;;3.72;3.42;;;20.70;68.70;;;;;;5015225;28;20033;-67
2022/06/12 07:11:35;;;;;;;3.60;3.20;;;20.80;68.60;;;;;;5012322;28;20042;-65
2022/06/12 07:14:01;;;;;;;2.90;2.58;;;20.90;67.90;;;;;;5013997;28;20033;-66
2022/06/12 07:16:29;;;;;;;3.17;2.83;;;21.00;68.00;;;;;;5007407;28;20631;-66
2022/06/12 07:18:55;;;;;;;3.00;2.70;;;21.10;67.30;;;;;;5005544;28;20176;-67
2022/06/12 07:21:21;;;;;;;3.78;2.60;;;21.20;66.60;;;;;;5010224;28;20035;-67
2022/06/12 07:23:47;;;;;;;2.78;2.40;;;21.30;66.70;;;;;;5014178;28;20061;-67
2022/06/12 07:26:45;;;;;;;3.55;2.53;;;21.40;66.20;;;;;;5013816;28;20038;-67
2022/06/12 07:29:12;;;;;;;3.55;2.80;;;21.50;65.70;;;;;;5024861;28;20038;-67
2022/06/12 07:31:38;;;;;;;3.72;2.38;;;21.60;65.70;;;;;;5016298;28;20030;-67
2022/06/12 07:34:04;;;;;;;2.53;2.33;;;21.70;65.30;;;;;;5016745;28;20501;-67
2022/06/12 07:36:31;;;;;;;2.33;2.08;;;21.80;65.30;;;;;;5012353;28;20104;-66
2022/06/12 07:38:57;;;;;;;2.20;2.00;;;22.00;65.10;;;;;;5015663;28;20038;-67
2022/06/12 07:41:23;;;;;;;2.63;2.42;;;22.10;64.60;;;;;;5013876;28;20104;-66
2022/06/12 07:43:49;;;;;;;2.70;2.17;;;22.20;63.80;;;;;;5012627;28;20041;-66
2022/06/12 07:46:18;;;;;;;3.47;2.38;;;22.40;63.60;;;;;;5013859;28;20052;-66
2022/06/12 07:48:45;;;;;;;3.63;2.05;;;22.40;62.60;;;;;;5014371;28;20042;-66
2022/06/12 07:51:15;;;;;;;1.83;1.73;;;22.60;62.70;;;;;;5012212;28;20068;-66
2022/06/12 07:53:41;;;;;;;1.83;1.73;;;22.70;62.40;;;;;;5013794;28;20025;-66
2022/06/12 07:56:08;;;;;;;2.10;2.00;;;22.80;62.00;;;;;;5015456;28;20049;-65
2022/06/12 07:58:35;;;;;;;5.43;1.80;;;23.00;61.90;;;;;;5010377;28;20041;-66
2022/06/12 08:01:04;;;;;;;2.05;1.95;;;23.10;61.30;;;;;;5014412;28;20034;-66
2022/06/12 08:03:31;;;;;;;1.80;1.70;;;23.30;60.50;;;;;;5012514;28;20034;-67
2022/06/12 08:05:57;;;;;;;1.70;1.58;;;23.40;60.60;;;;;;5016425;28;20049;-65
2022/06/12 08:08:23;;;;;;;1.50;1.40;;;23.50;60.50;;;;;;5014102;28;20041;-66
2022/06/12 08:10:49;;;;;;;1.60;1.48;;;23.70;59.80;;;;;;5011631;28;20039;-67
2022/06/12 08:13:15;;;;;;;1.73;1.50;;;23.80;59.30;;;;;;5015687;28;20091;-67
2022/06/12 08:15:47;;;;;;;1.20;1.17;;;23.90;59.50;;;;;;5014627;28;20113;-66
2022/06/12 08:18:14;;;;;;;2.00;1.35;;;24.10;59.00;;;;;;5014965;28;20124;-67
2022/06/12 08:20:45;;;;;;;2.35;1.40;;;24.30;58.70;;;;;;5015440;28;20496;-66
2022/06/12 08:23:32;;;;;;;2.70;1.42;;;24.40;57.30;;;;;;5018034;28;20029;-67
2022/06/12 08:26:01;;;;;;;1.50;1.40;;;24.50;56.10;;;;;;5016542;28;20420;-67
2022/06/12 08:28:29;;;;;;;1.40;1.30;;;24.70;57.10;;;;;;5013412;28;20657;-67
2022/06/12 08:30:55;;;;;;;2.38;1.40;;;24.80;57.20;;;;;;5016246;28;20034;-66
2022/06/12 08:33:22;;;;;;;1.70;1.40;;;24.90;56.90;;;;;;5016788;28;20044;-67
2022/06/12 08:35:48;;;;;;;1.25;1.20;;;25.00;55.70;;;;;;5014681;28;20041;-67
2022/06/12 08:38:14;;;;;;;1.63;1.27;;;25.20;55.90;;;;;;5016399;28;20033;-67
2022/06/12 08:41:05;;;;;;;1.65;1.45;;;25.40;56.00;;;;;;5017186;28;20037;-67
2022/06/12 08:44:07;;;;;;;1.23;1.13;;;25.50;54.70;;;;;;5013178;28;20026;-67
2022/06/12 08:46:36;;;;;;;1.25;1.23;;;25.60;54.10;;;;;;5015681;28;22678;-66
2022/06/12 08:49:25;;;;;;;1.30;1.20;;;25.80;54.00;;;;;;5013442;28;20025;-66
2022/06/12 08:51:55;;;;;;;2.50;1.00;;;25.90;53.70;;;;;;5014963;28;20037;-67
2022/06/12 08:54:35;;;;;;;1.52;1.20;;;26.00;54.10;;;;;;5011691;28;20025;-66
2022/06/12 08:57:08;;;;;;;1.77;1.17;;;26.10;53.40;;;;;;5005528;28;20034;-67
2022/06/12 08:59:45;;;;;;;1.52;1.33;;;26.30;53.50;;;;;;5013858;28;20041;-66
2022/06/12 09:02:22;;;;;;;1.30;1.00;;;26.40;52.60;;;;;;5013551;28;20080;-66
2022/06/12 09:04:48;;;;;;;0.85;0.85;;;26.50;52.20;;;;;;5014843;28;20042;-67
2022/06/12 09:07:58;;;;;;;0.90;0.90;;;26.60;52.70;;;;;;5014052;28;20563;-67
2022/06/12 09:10:33;;;;;;;0.80;0.80;;;26.70;51.90;;;;;;5017481;28;20053;-67
2022/06/12 09:13:11;;;;;;;2.60;1.00;;;26.80;51.70;;;;;;5014530;28;20041;-67
2022/06/12 09:16:26;;;;;;;0.90;0.90;;;26.90;50.90;;;;;;5013623;28;20141;-67
2022/06/12 09:19:21;;;;;;;2.22;0.90;;;27.10;50.20;;;;;;5017027;28;20132;-67
2022/06/12 09:22:09;;;;;;;2.30;0.90;;;27.10;49.10;;;;;;5013268;28;20033;-67
2022/06/12 09:24:51;;;;;;;0.80;0.75;;;27.30;49.20;;;;;;5020419;28;20053;-66
2022/06/12 09:27:26;;;;;;;1.05;0.85;;;27.40;48.20;;;;;;5015097;28;20084;-67
2022/06/12 09:30:03;;;;;;;0.95;0.88;;;27.50;48.30;;;;;;5012703;28;20034;-67
2022/06/12 09:32:48;;;;;;;0.82;0.77;;;27.60;47.80;;;;;;5016107;28;20091;-67
2022/06/12 09:35:22;;;;;;;1.30;1.00;;;27.70;47.90;;;;;;5018142;28;20033;-67
2022/06/12 09:38:19;;;;;;;1.20;0.90;;;27.70;47.50;;;;;;5019287;28;20045;-67
2022/06/12 09:40:56;;;;;;;0.90;0.90;;;27.80;46.90;;;;;;5014557;28;20026;-67
2022/06/12 09:43:41;;;;;;;1.20;0.80;;;27.90;46.10;;;;;;5017078;28;20051;-67
2022/06/12 09:46:25;;;;;;;1.30;0.90;;;27.90;46.40;;;;;;5017615;28;20040;-68
2022/06/12 09:49:16;;;;;;;0.90;0.90;;;28.00;46.10;;;;;;5014881;28;20720;-67
2022/06/12 09:52:13;;;;;;;0.70;0.70;;;28.10;45.80;;;;;;5014033;28;20041;-67
2022/06/12 09:55:14;;;;;;;0.65;0.65;;;28.20;45.90;;;;;;5014536;28;20061;-66
2022/06/12 09:57:48;;;;;;;4.00;1.00;;;28.20;45.40;;;;;;5016090;28;20397;-67
2022/06/12 10:00:47;;;;;;;1.05;0.85;;;28.30;44.80;;;;;;5016492;28;20152;-67
2022/06/12 10:03:29;;;;;;;1.77;1.10;;;28.40;44.70;;;;;;5014874;28;20068;-67
2022/06/12 10:06:02;;;;;;;1.10;1.00;;;28.40;44.80;;;;;;5016683;28;20030;-67
2022/06/12 10:08:39;;;;;;;0.80;0.80;;;28.40;44.00;;;;;;5014995;28;20120;-67
2022/06/12 10:11:08;;;;;;;1.33;0.90;;;28.50;43.30;;;;;;5012691;28;20501;-67
2022/06/12 10:13:49;;;;;;;1.13;0.93;;;28.50;43.50;;;;;;5017437;28;20523;-66
2022/06/12 10:16:34;;;;;;;1.00;0.82;;;28.60;43.60;;;;;;5019821;28;20215;-67
2022/06/12 10:19:14;;;;;;;1.42;0.80;;;28.60;43.50;;;;;;5020061;28;20030;-67
2022/06/12 10:21:43;;;;;;;1.42;1.00;;;28.70;43.40;;;;;;5015225;28;20038;-67
2022/06/12 10:24:11;;;;;;;0.68;0.68;;;28.80;44.40;;;;;;5016943;28;20532;-67
2022/06/12 10:26:36;;;;;;;7.18;0.98;;;28.90;43.50;;;;;;5014973;28;20280;-67
2022/06/12 10:29:14;;;;;;;1.10;0.90;;;28.90;43.30;;;;;;5016608;28;20061;-67
2022/06/12 10:31:58;;;;;;;0.80;0.77;;;29.00;42.60;;;;;;5014388;28;20172;-67
2022/06/12 10:34:30;;;;;;;2.00;0.90;;;29.10;42.00;;;;;;5014121;28;20037;-68
2022/06/12 10:37:19;;;;;;;2.05;1.00;;;29.20;42.70;;;;;;5015705;28;20033;-67
2022/06/12 10:39:45;;;;;;;0.75;0.70;;;29.20;42.80;;;;;;5014289;28;20048;-67
2022/06/12 10:42:49;;;;;;;1.25;0.80;;;29.30;43.10;;;;;;5015488;28;20428;-67
2022/06/12 10:45:24;;;;;;;1.70;0.82;;;29.30;40.60;;;;;;5014921;28;20034;-67
2022/06/12 10:47:50;;;;;;;;;;;29.40;39.90;;;;;;5016446;28;20099;-67
2022/06/12 10:50:24;;;;;;;1.42;0.70;;;29.40;42.70;;;;;;5014629;28;20413;-67
2022/06/12 10:53:02;;;;;;;4.05;1.00;;;29.40;41.60;;;;;;5014046;28;20045;-67
2022/06/12 10:55:46;;;;;;;1.02;0.88;;;29.50;41.10;;;;;;5011737;28;20574;-67
2022/06/12 10:58:42;;;;;;;1.13;0.90;;;29.50;41.60;;;;;;5016254;28;20045;-67
2022/06/12 11:01:46;;;;;;;0.80;0.80;;;29.60;41.50;;;;;;5014498;28;20185;-67
2022/06/12 11:04:36;;;;;;;0.93;0.90;;;29.70;40.80;;;;;;5016262;28;20076;-67
2022/06/12 11:07:33;;;;;;;1.73;0.80;;;29.80;40.80;;;;;;5013918;28;20030;-67
2022/06/12 11:10:19;;;;;;;0.80;0.75;;;29.80;39.80;;;;;;5022160;28;20061;-67
2022/06/12 11:12:59;;;;;;;1.30;0.90;;;29.90;40.60;;;;;;5017233;28;20029;-67
2022/06/12 11:15:31;;;;;;;1.80;0.98;;;29.90;40.30;;;;;;5019860;28;20416;-67
2022/06/12 11:18:22;;;;;;;1.10;0.75;;;30.00;39.60;;;;;;5019601;28;20046;-67
2022/06/12 11:21:00;;;;;;;1.40;0.98;;;30.10;39.30;;;;;;5020227;28;20048;-67
2022/06/12 11:24:02;;;;;;;0.70;0.70;;;30.10;38.60;;;;;;5019604;28;20041;-67
2022/06/12 11:27:02;;;;;;;0.80;0.80;;;30.20;39.40;;;;;;5019795;28;20042;-67
2022/06/12 11:29:45;;;;;;;1.48;1.00;;;30.20;38.80;;;;;;5017954;28;20128;-67
2022/06/12 11:32:14;;;;;;;1.30;0.90;;;30.20;38.70;;;;;;5015211;28;20038;-67
2022/06/12 11:34:52;;;;;;;0.73;0.70;;;30.20;37.70;;;;;;5014519;28;20508;-67
2022/06/12 11:37:27;;;;;;;1.13;1.00;;;30.20;38.90;;;;;;5015482;28;20109;-67
2022/06/12 11:40:02;;;;;;;1.48;0.90;;;30.20;39.60;;;;;;5018907;28;20520;-67
2022/06/12 11:42:46;;;;;;;0.90;0.70;;;30.10;38.00;;;;;;5017090;28;20045;-67
2022/06/12 11:45:24;;;;;;;0.80;0.60;;;30.10;38.40;;;;;;5018385;28;20041;-67
2022/06/12 11:47:58;;;;;;;0.80;0.80;;;30.10;38.90;;;;;;5020708;28;20030;-67
2022/06/12 11:50:56;;;;;;;0.93;0.80;;;30.10;38.50;;;;;;5019525;28;20121;-67
2022/06/12 11:53:31;;;;;;;1.17;0.70;;;30.10;37.40;;;;;;5019445;28;20038;-67
2022/06/12 11:56:04;;;;;;;0.70;0.70;;;30.10;38.00;;;;;;5018698;28;20564;-67
2022/06/12 11:58:49;;;;;;;1.02;0.80;;;30.00;38.20;;;;;;5019922;28;20521;-67
2022/06/12 12:01:20;;;;;;;1.63;0.95;;;30.00;37.50;;;;;;5014728;28;20037;-67
2022/06/12 12:04:33;;;;;;;3.25;0.80;;;30.00;38.00;;;;;;5013038;28;20060;-67
2022/06/12 12:07:08;;;;;;;0.80;0.70;;;30.00;37.20;;;;;;5022541;28;20044;-67
2022/06/12 12:09:38;;;;;;;;;;;29.90;36.00;;;;;;5019137;28;20135;-66
2022/06/12 12:12:14;;;;;;;0.63;0.57;;;29.90;38.40;;;;;;5014204;28;19921;-67
2022/06/12 12:14:43;;;;;;;0.98;0.60;;;29.90;37.90;;;;;;5016284;28;20058;-67
2022/06/12 12:17:29;;;;;;;0.60;0.60;;;29.90;37.50;;;;;;5017050;28;20528;-67
2022/06/12 12:20:03;;;;;;;0.85;0.68;;;29.90;37.40;;;;;;5018783;28;20033;-67
2022/06/12 12:22:49;;;;;;;0.82;0.50;;;30.00;37.10;;;;;;5016826;28;20120;-67
2022/06/12 12:25:46;;;;;;;0.60;0.60;;;30.00;37.40;;;;;;5017226;28;22130;-67
2022/06/12 12:28:38;;;;;;;0.80;0.60;;;30.10;36.50;;;;;;5018568;28;20052;-67
2022/06/12 12:31:07;;;;;;;0.70;0.70;;;30.10;36.20;;;;;;5015868;28;20029;-67
2022/06/12 12:33:33;;;;;;;0.95;0.60;;;30.20;36.80;;;;;;5016784;28;20034;-67
2022/06/12 12:41:55;;;;;;;0.47;0.47;;;30.30;36.30;;;;;;5009419;28;20052;-67
2022/06/12 12:44:29;;;;;;;0.60;0.60;;;30.30;36.40;;;;;;5012810;28;20029;-67
2022/06/12 12:46:55;;;;;;;0.50;0.50;;;30.30;36.20;;;;;;5010893;28;20346;-67
2022/06/12 12:49:30;;;;;;;0.82;0.70;;;30.40;36.20;;;;;;5014260;28;20111;-67
2022/06/12 12:52:19;;;;;;;1.30;0.60;;;30.40;35.30;;;;;;5017242;28;20095;-67
2022/06/12 12:54:52;;;;;;;0.82;0.60;;;30.40;35.00;;;;;;5016552;28;20119;-67
2022/06/12 12:57:40;;;;;;;0.70;0.60;;;30.40;35.30;;;;;;5018522;28;20042;-67
2022/06/12 13:00:20;;;;;;;0.70;0.50;;;30.40;36.50;;;;;;5022021;28;20038;-67
2022/06/12 13:02:54;;;;;;;0.60;0.60;;;30.50;35.80;;;;;;5006488;28;20044;-67
2022/06/12 13:05:31;;;;;;;;;;;30.60;35.50;;;;;;5015940;28;20022;-67
2022/06/12 13:08:12;;;;;;;1.60;0.70;;;30.70;36.80;;;;;;5008153;28;19913;-67
2022/06/12 13:10:59;;;;;;;0.60;0.60;;;30.70;34.80;;;;;;5010939;28;20120;-67
2022/06/12 13:14:01;;;;;;;2.25;0.60;;;30.70;34.40;;;;;;5017005;28;20037;-67
2022/06/12 13:16:48;;;;;;;1.40;0.60;;;30.70;33.00;;;;;;5016343;28;20122;-67
2022/06/12 13:19:33;;;;;;;1.42;0.68;;;30.70;35.40;;;;;;5018800;28;20038;-67
2022/06/12 13:22:07;;;;;;;1.15;0.70;;;30.70;34.80;;;;;;5018407;28;20060;-67
2022/06/12 13:24:58;;;;;;;0.50;0.50;;;30.70;35.00;;;;;;5010475;28;20218;-66
2022/06/12 13:27:27;;;;;;;0.60;0.50;;;30.70;33.80;;;;;;5022245;28;20468;-67
2022/06/12 13:29:54;;;;;;;1.15;0.50;;;30.70;35.20;;;;;;5018830;28;20084;-67
2022/06/12 13:32:45;;;;;;;0.77;0.70;;;30.70;35.20;;;;;;5019276;28;20517;-67
2022/06/12 13:35:29;;;;;;;0.60;0.60;;;30.80;35.00;;;;;;5016049;28;20475;-67
2022/06/12 13:38:01;;;;;;;0.80;0.70;;;30.90;35.00;;;;;;5017108;28;20049;-67
2022/06/12 13:40:40;;;;;;;0.63;0.60;;;30.90;34.60;;;;;;5029651;28;20038;-67
2022/06/12 13:43:29;;;;;;;0.82;0.70;;;30.90;33.70;;;;;;5013826;28;20044;-67
2022/06/12 13:46:22;;;;;;;1.15;0.57;;;30.90;34.20;;;;;;5017785;28;20026;-67